sensor_id;sensor_type;location;lat;lon;timestamp;P1;durP1;ratioP1;P2;durP2;ratioP2
9547;SDS011;4812;51.992;8.648;2022-07-23T00:01:09;24.20;;;14.67;;
9547;SDS011;4812;51.992;8.648;2022-07-23T00:03:36;18.30;;;13.10;;
9547;SDS011;4812;51.992;8.648;2022-07-23T00:06:04;17.93;;;14.00;;
9547;SDS011;4812;51.992;8.648;2022-07-23T00:08:35;17.43;;;14.67;;
9547;SDS011;4812;51.992;8.648;2022-07-23T00:11:02;18.97;;;15.17;;
9547;SDS011;4812;51.992;8.648;2022-07-23T00:13:30;19.80;;;14.80;;
9547;SDS011;4812;51.992;8.648;2022-07-23T00:15:59;19.00;;;14.40;;
9547;SDS011;4812;51.992;8.648;2022-07-23T00:18:26;19.07;;;14.67;;
9547;SDS011;4812;51.992;8.648;2022-07-23T00:20:54;19.13;;;14.60;;
9547;SDS011;4812;51.992;8.648;2022-07-23T00:23:21;16.93;;;14.87;;
9547;SDS011;4812;51.992;8.648;2022-07-23T00:25:51;17.60;;;14.70;;
9547;SDS011;4812;51.992;8.648;2022-07-23T00:28:18;16.77;;;14.97;;
9547;SDS011;4812;51.992;8.648;2022-07-23T00:30:46;19.97;;;14.33;;
9547;SDS011;4812;51.992;8.648;2022-07-23T00:33:15;19.70;;;15.83;;
9547;SDS011;4812;51.992;8.648;2022-07-23T00:35:43;18.00;;;15.60;;
9547;SDS011;4812;51.992;8.648;2022-07-23T00:38:10;18.13;;;16.03;;
9547;SDS011;4812;51.992;8.648;2022-07-23T00:40:38;20.83;;;15.53;;
9547;SDS011;4812;51.992;8.648;2022-07-23T00:43:06;21.10;;;14.77;;
9547;SDS011;4812;51.992;8.648;2022-07-23T00:45:34;21.33;;;14.73;;
9547;SDS011;4812;51.992;8.648;2022-07-23T00:48:02;18.07;;;14.90;;
9547;SDS011;4812;51.992;8.648;2022-07-23T00:50:31;20.43;;;14.87;;
9547;SDS011;4812;51.992;8.648;2022-07-23T00:52:58;21.73;;;15.50;;
9547;SDS011;4812;51.992;8.648;2022-07-23T00:55:26;18.07;;;14.97;;
9547;SDS011;4812;51.992;8.648;2022-07-23T00:57:54;22.33;;;15.33;;
9547;SDS011;4812;51.992;8.648;2022-07-23T01:00:24;17.93;;;14.90;;
9547;SDS011;4812;51.992;8.648;2022-07-23T01:02:51;20.23;;;14.73;;
9547;SDS011;4812;51.992;8.648;2022-07-23T01:05:19;16.30;;;14.70;;
9547;SDS011;4812;51.992;8.648;2022-07-23T01:07:50;23.03;;;15.00;;
9547;SDS011;4812;51.992;8.648;2022-07-23T01:10:21;23.97;;;15.57;;
9547;SDS011;4812;51.992;8.648;2022-07-23T01:12:59;18.90;;;15.93;;
9547;SDS011;4812;51.992;8.648;2022-07-23T01:15:28;22.23;;;15.40;;
9547;SDS011;4812;51.992;8.648;2022-07-23T01:17:56;24.47;;;17.07;;
9547;SDS011;4812;51.992;8.648;2022-07-23T01:20:24;23.37;;;16.50;;
9547;SDS011;4812;51.992;8.648;2022-07-23T01:22:54;20.03;;;16.63;;
9547;SDS011;4812;51.992;8.648;2022-07-23T01:25:21;18.43;;;15.43;;
9547;SDS011;4812;51.992;8.648;2022-07-23T01:27:54;23.20;;;15.87;;
9547;SDS011;4812;51.992;8.648;2022-07-23T01:30:22;21.10;;;16.27;;
9547;SDS011;4812;51.992;8.648;2022-07-23T01:32:50;20.27;;;16.80;;
9547;SDS011;4812;51.992;8.648;2022-07-23T01:35:18;20.43;;;17.37;;
9547;SDS011;4812;51.992;8.648;2022-07-23T01:37:46;20.70;;;18.43;;
9547;SDS011;4812;51.992;8.648;2022-07-23T01:40:19;26.37;;;20.13;;
9547;SDS011;4812;51.992;8.648;2022-07-23T01:42:49;24.17;;;21.87;;
9547;SDS011;4812;51.992;8.648;2022-07-23T01:45:17;32.03;;;23.77;;
9547;SDS011;4812;51.992;8.648;2022-07-23T01:47:48;26.00;;;23.30;;
9547;SDS011;4812;51.992;8.648;2022-07-23T01:50:16;29.70;;;24.57;;
9547;SDS011;4812;51.992;8.648;2022-07-23T01:53:03;26.60;;;22.93;;
9547;SDS011;4812;51.992;8.648;2022-07-23T01:55:32;29.67;;;23.23;;
9547;SDS011;4812;51.992;8.648;2022-07-23T01:57:59;26.80;;;22.53;;
9547;SDS011;4812;51.992;8.648;2022-07-23T02:00:28;25.57;;;22.80;;
9547;SDS011;4812;51.992;8.648;2022-07-23T02:02:56;24.93;;;22.37;;
9547;SDS011;4812;51.992;8.648;2022-07-23T02:05:26;26.83;;;22.07;;
9547;SDS011;4812;51.992;8.648;2022-07-23T02:07:54;29.33;;;21.30;;
9547;SDS011;4812;51.992;8.648;2022-07-23T02:10:22;29.80;;;21.43;;
9547;SDS011;4812;51.992;8.648;2022-07-23T02:12:51;26.60;;;21.43;;
9547;SDS011;4812;51.992;8.648;2022-07-23T02:15:19;24.07;;;21.07;;
9547;SDS011;4812;51.992;8.648;2022-07-23T02:17:47;25.07;;;20.93;;
9547;SDS011;4812;51.992;8.648;2022-07-23T02:20:15;23.33;;;20.87;;
9547;SDS011;4812;51.992;8.648;2022-07-23T02:22:43;24.47;;;21.67;;
9547;SDS011;4812;51.992;8.648;2022-07-23T02:25:10;32.10;;;22.40;;
9547;SDS011;4812;51.992;8.648;2022-07-23T02:27:38;26.53;;;21.63;;
9547;SDS011;4812;51.992;8.648;2022-07-23T02:30:07;31.33;;;22.00;;
9547;SDS011;4812;51.992;8.648;2022-07-23T02:32:36;25.33;;;21.27;;
9547;SDS011;4812;51.992;8.648;2022-07-23T02:35:04;27.93;;;21.83;;
9547;SDS011;4812;51.992;8.648;2022-07-23T02:37:32;26.43;;;22.50;;
9547;SDS011;4812;51.992;8.648;2022-07-23T02:40:00;33.73;;;22.53;;
9547;SDS011;4812;51.992;8.648;2022-07-23T02:42:30;27.37;;;21.70;;
9547;SDS011;4812;51.992;8.648;2022-07-23T02:44:58;24.77;;;21.80;;
9547;SDS011;4812;51.992;8.648;2022-07-23T02:47:27;29.43;;;23.33;;
9547;SDS011;4812;51.992;8.648;2022-07-23T02:49:56;26.67;;;22.03;;
9547;SDS011;4812;51.992;8.648;2022-07-23T02:52:23;26.93;;;22.83;;
9547;SDS011;4812;51.992;8.648;2022-07-23T02:54:51;26.87;;;22.87;;
9547;SDS011;4812;51.992;8.648;2022-07-23T02:57:18;28.63;;;21.37;;
9547;SDS011;4812;51.992;8.648;2022-07-23T02:59:46;32.53;;;22.23;;
9547;SDS011;4812;51.992;8.648;2022-07-23T03:02:13;30.97;;;21.77;;
9547;SDS011;4812;51.992;8.648;2022-07-23T03:04:42;26.37;;;20.90;;
9547;SDS011;4812;51.992;8.648;2022-07-23T03:07:10;26.63;;;20.60;;
9547;SDS011;4812;51.992;8.648;2022-07-23T03:09:38;25.67;;;21.70;;
9547;SDS011;4812;51.992;8.648;2022-07-23T03:12:09;28.27;;;21.73;;
9547;SDS011;4812;51.992;8.648;2022-07-23T03:14:39;27.00;;;21.67;;
9547;SDS011;4812;51.992;8.648;2022-07-23T03:17:07;26.40;;;22.70;;
9547;SDS011;4812;51.992;8.648;2022-07-23T03:19:35;32.07;;;22.43;;
9547;SDS011;4812;51.992;8.648;2022-07-23T03:22:05;28.83;;;21.70;;
9547;SDS011;4812;51.992;8.648;2022-07-23T03:24:32;29.67;;;22.23;;
9547;SDS011;4812;51.992;8.648;2022-07-23T03:27:20;32.43;;;22.27;;
9547;SDS011;4812;51.992;8.648;2022-07-23T03:29:48;34.83;;;21.67;;
9547;SDS011;4812;51.992;8.648;2022-07-23T03:32:16;34.30;;;21.47;;
9547;SDS011;4812;51.992;8.648;2022-07-23T03:34:44;35.17;;;22.40;;
9547;SDS011;4812;51.992;8.648;2022-07-23T03:37:13;29.50;;;21.07;;
9547;SDS011;4812;51.992;8.648;2022-07-23T03:39:42;25.57;;;20.63;;
9547;SDS011;4812;51.992;8.648;2022-07-23T03:42:09;37.83;;;22.00;;
9547;SDS011;4812;51.992;8.648;2022-07-23T03:44:37;44.90;;;22.30;;
9547;SDS011;4812;51.992;8.648;2022-07-23T03:47:05;100.20;;;24.30;;
9547;SDS011;4812;51.992;8.648;2022-07-23T03:49:33;30.63;;;22.33;;
9547;SDS011;4812;51.992;8.648;2022-07-23T03:52:02;38.00;;;21.77;;
9547;SDS011;4812;51.992;8.648;2022-07-23T03:54:34;33.43;;;20.63;;
9547;SDS011;4812;51.992;8.648;2022-07-23T03:57:01;49.20;;;22.93;;
9547;SDS011;4812;51.992;8.648;2022-07-23T03:59:31;43.37;;;22.00;;
9547;SDS011;4812;51.992;8.648;2022-07-23T04:01:58;50.03;;;23.23;;
9547;SDS011;4812;51.992;8.648;2022-07-23T04:04:26;40.73;;;21.87;;
9547;SDS011;4812;51.992;8.648;2022-07-23T04:06:54;43.60;;;21.23;;
9547;SDS011;4812;51.992;8.648;2022-07-23T04:09:22;31.60;;;20.20;;
9547;SDS011;4812;51.992;8.648;2022-07-23T04:11:51;49.23;;;20.57;;
9547;SDS011;4812;51.992;8.648;2022-07-23T04:14:19;72.73;;;22.90;;
9547;SDS011;4812;51.992;8.648;2022-07-23T04:16:48;40.13;;;21.03;;
9547;SDS011;4812;51.992;8.648;2022-07-23T04:19:16;50.93;;;22.93;;
9547;SDS011;4812;51.992;8.648;2022-07-23T04:21:58;46.67;;;21.77;;
9547;SDS011;4812;51.992;8.648;2022-07-23T04:24:25;40.20;;;21.60;;
9547;SDS011;4812;51.992;8.648;2022-07-23T04:26:54;42.87;;;22.27;;
9547;SDS011;4812;51.992;8.648;2022-07-23T04:29:22;49.63;;;23.53;;
9547;SDS011;4812;51.992;8.648;2022-07-23T04:31:49;37.97;;;22.90;;
9547;SDS011;4812;51.992;8.648;2022-07-23T04:34:17;41.40;;;23.60;;
9547;SDS011;4812;51.992;8.648;2022-07-23T04:36:45;36.43;;;22.57;;
9547;SDS011;4812;51.992;8.648;2022-07-23T04:39:13;43.87;;;22.67;;
9547;SDS011;4812;51.992;8.648;2022-07-23T04:41:41;42.80;;;22.97;;
9547;SDS011;4812;51.992;8.648;2022-07-23T04:44:10;37.63;;;22.80;;
9547;SDS011;4812;51.992;8.648;2022-07-23T04:46:37;52.93;;;24.70;;
9547;SDS011;4812;51.992;8.648;2022-07-23T04:49:06;45.23;;;24.33;;
9547;SDS011;4812;51.992;8.648;2022-07-23T04:51:34;57.90;;;24.83;;
9547;SDS011;4812;51.992;8.648;2022-07-23T04:54:02;44.10;;;24.17;;
9547;SDS011;4812;51.992;8.648;2022-07-23T04:56:30;46.70;;;24.13;;
9547;SDS011;4812;51.992;8.648;2022-07-23T04:58:57;53.93;;;24.77;;
9547;SDS011;4812;51.992;8.648;2022-07-23T05:01:27;48.57;;;22.70;;
9547;SDS011;4812;51.992;8.648;2022-07-23T05:03:55;49.30;;;22.93;;
9547;SDS011;4812;51.992;8.648;2022-07-23T05:06:26;51.17;;;24.87;;
9547;SDS011;4812;51.992;8.648;2022-07-23T05:08:54;50.53;;;24.67;;
9547;SDS011;4812;51.992;8.648;2022-07-23T05:11:22;45.13;;;24.00;;
9547;SDS011;4812;51.992;8.648;2022-07-23T05:13:53;46.53;;;23.50;;
9547;SDS011;4812;51.992;8.648;2022-07-23T05:16:21;52.93;;;23.73;;
9547;SDS011;4812;51.992;8.648;2022-07-23T05:18:52;46.60;;;23.60;;
9547;SDS011;4812;51.992;8.648;2022-07-23T05:21:21;45.10;;;23.00;;
9547;SDS011;4812;51.992;8.648;2022-07-23T05:23:48;48.07;;;23.60;;
9547;SDS011;4812;51.992;8.648;2022-07-23T05:26:16;39.13;;;22.57;;
9547;SDS011;4812;51.992;8.648;2022-07-23T05:28:48;45.63;;;23.70;;
9547;SDS011;4812;51.992;8.648;2022-07-23T05:31:18;37.07;;;23.30;;
9547;SDS011;4812;51.992;8.648;2022-07-23T05:33:46;44.27;;;23.30;;
9547;SDS011;4812;51.992;8.648;2022-07-23T05:36:15;47.00;;;23.00;;
9547;SDS011;4812;51.992;8.648;2022-07-23T05:38:50;45.60;;;23.40;;
9547;SDS011;4812;51.992;8.648;2022-07-23T05:41:18;39.70;;;23.23;;
9547;SDS011;4812;51.992;8.648;2022-07-23T05:43:46;38.90;;;22.67;;
9547;SDS011;4812;51.992;8.648;2022-07-23T05:46:15;33.80;;;20.67;;
9547;SDS011;4812;51.992;8.648;2022-07-23T05:48:48;39.53;;;22.90;;
9547;SDS011;4812;51.992;8.648;2022-07-23T05:51:39;35.50;;;23.43;;
9547;SDS011;4812;51.992;8.648;2022-07-23T05:54:07;40.07;;;23.30;;
9547;SDS011;4812;51.992;8.648;2022-07-23T05:56:37;37.17;;;24.03;;
9547;SDS011;4812;51.992;8.648;2022-07-23T05:59:05;35.60;;;23.47;;
9547;SDS011;4812;51.992;8.648;2022-07-23T06:01:33;43.60;;;24.43;;
9547;SDS011;4812;51.992;8.648;2022-07-23T06:04:06;31.47;;;22.50;;
9547;SDS011;4812;51.992;8.648;2022-07-23T06:06:37;35.60;;;23.70;;
9547;SDS011;4812;51.992;8.648;2022-07-23T06:09:08;30.37;;;23.27;;
9547;SDS011;4812;51.992;8.648;2022-07-23T06:11:37;37.17;;;24.43;;
9547;SDS011;4812;51.992;8.648;2022-07-23T06:14:05;30.63;;;23.80;;
9547;SDS011;4812;51.992;8.648;2022-07-23T06:16:44;25.27;;;22.67;;
9547;SDS011;4812;51.992;8.648;2022-07-23T06:19:12;28.27;;;21.97;;
9547;SDS011;4812;51.992;8.648;2022-07-23T06:21:39;25.03;;;22.13;;
9547;SDS011;4812;51.992;8.648;2022-07-23T06:24:14;24.43;;;22.00;;
9547;SDS011;4812;51.992;8.648;2022-07-23T06:26:42;22.80;;;20.80;;
9547;SDS011;4812;51.992;8.648;2022-07-23T06:29:10;20.63;;;18.83;;
9547;SDS011;4812;51.992;8.648;2022-07-23T06:31:38;20.23;;;18.50;;
9547;SDS011;4812;51.992;8.648;2022-07-23T06:34:06;19.87;;;18.37;;
9547;SDS011;4812;51.992;8.648;2022-07-23T06:36:35;19.80;;;18.17;;
9547;SDS011;4812;51.992;8.648;2022-07-23T06:39:04;20.87;;;19.20;;
9547;SDS011;4812;51.992;8.648;2022-07-23T06:41:36;22.17;;;20.17;;
9547;SDS011;4812;51.992;8.648;2022-07-23T06:44:03;21.97;;;20.07;;
9547;SDS011;4812;51.992;8.648;2022-07-23T06:46:33;22.70;;;20.43;;
9547;SDS011;4812;51.992;8.648;2022-07-23T06:49:01;21.10;;;19.30;;
9547;SDS011;4812;51.992;8.648;2022-07-23T06:51:31;22.67;;;20.73;;
9547;SDS011;4812;51.992;8.648;2022-07-23T06:54:00;22.40;;;20.57;;
9547;SDS011;4812;51.992;8.648;2022-07-23T06:56:27;22.97;;;21.00;;
9547;SDS011;4812;51.992;8.648;2022-07-23T06:58:57;23.07;;;20.97;;
9547;SDS011;4812;51.992;8.648;2022-07-23T07:01:25;23.30;;;21.33;;
9547;SDS011;4812;51.992;8.648;2022-07-23T07:03:53;23.37;;;21.30;;
9547;SDS011;4812;51.992;8.648;2022-07-23T07:06:21;23.67;;;21.67;;
9547;SDS011;4812;51.992;8.648;2022-07-23T07:08:50;23.80;;;21.80;;
9547;SDS011;4812;51.992;8.648;2022-07-23T07:11:18;24.63;;;22.27;;
9547;SDS011;4812;51.992;8.648;2022-07-23T07:13:45;23.90;;;21.70;;
9547;SDS011;4812;51.992;8.648;2022-07-23T07:16:14;24.20;;;22.10;;
9547;SDS011;4812;51.992;8.648;2022-07-23T07:18:42;23.57;;;21.57;;
9547;SDS011;4812;51.992;8.648;2022-07-23T07:21:10;24.77;;;22.47;;
9547;SDS011;4812;51.992;8.648;2022-07-23T07:23:37;25.10;;;22.90;;
9547;SDS011;4812;51.992;8.648;2022-07-23T07:26:05;24.17;;;22.17;;
9547;SDS011;4812;51.992;8.648;2022-07-23T07:28:32;25.57;;;23.27;;
9547;SDS011;4812;51.992;8.648;2022-07-23T07:31:00;25.47;;;23.07;;
9547;SDS011;4812;51.992;8.648;2022-07-23T07:33:30;24.23;;;21.90;;
9547;SDS011;4812;51.992;8.648;2022-07-23T07:35:58;24.30;;;22.07;;
9547;SDS011;4812;51.992;8.648;2022-07-23T07:38:26;24.47;;;22.33;;
9547;SDS011;4812;51.992;8.648;2022-07-23T07:40:54;24.37;;;22.37;;
9547;SDS011;4812;51.992;8.648;2022-07-23T07:43:21;23.90;;;21.80;;
9547;SDS011;4812;51.992;8.648;2022-07-23T07:45:49;23.13;;;21.13;;
9547;SDS011;4812;51.992;8.648;2022-07-23T07:48:17;22.30;;;20.50;;
9547;SDS011;4812;51.992;8.648;2022-07-23T07:50:46;21.27;;;19.63;;
9547;SDS011;4812;51.992;8.648;2022-07-23T07:53:14;21.17;;;19.53;;
9547;SDS011;4812;51.992;8.648;2022-07-23T07:55:42;21.73;;;19.93;;
9547;SDS011;4812;51.992;8.648;2022-07-23T07:58:16;22.10;;;20.10;;
9547;SDS011;4812;51.992;8.648;2022-07-23T08:00:44;22.43;;;20.70;;
9547;SDS011;4812;51.992;8.648;2022-07-23T08:03:12;22.37;;;20.50;;
9547;SDS011;4812;51.992;8.648;2022-07-23T08:05:39;22.00;;;20.20;;
9547;SDS011;4812;51.992;8.648;2022-07-23T08:08:08;22.13;;;20.13;;
9547;SDS011;4812;51.992;8.648;2022-07-23T08:10:43;22.17;;;20.20;;
9547;SDS011;4812;51.992;8.648;2022-07-23T08:13:12;22.80;;;21.03;;
9547;SDS011;4812;51.992;8.648;2022-07-23T08:15:40;23.17;;;21.13;;
9547;SDS011;4812;51.992;8.648;2022-07-23T08:18:09;23.10;;;21.10;;
9547;SDS011;4812;51.992;8.648;2022-07-23T08:20:37;23.60;;;21.63;;
9547;SDS011;4812;51.992;8.648;2022-07-23T08:23:05;22.70;;;20.80;;
9547;SDS011;4812;51.992;8.648;2022-07-23T08:25:35;23.17;;;21.20;;
9547;SDS011;4812;51.992;8.648;2022-07-23T08:28:07;22.77;;;20.70;;
9547;SDS011;4812;51.992;8.648;2022-07-23T08:30:36;22.80;;;20.90;;
9547;SDS011;4812;51.992;8.648;2022-07-23T08:33:05;22.73;;;20.93;;
9547;SDS011;4812;51.992;8.648;2022-07-23T08:35:56;23.53;;;21.53;;
9547;SDS011;4812;51.992;8.648;2022-07-23T08:38:24;22.97;;;21.07;;
9547;SDS011;4812;51.992;8.648;2022-07-23T08:40:54;22.57;;;20.83;;
9547;SDS011;4812;51.992;8.648;2022-07-23T08:43:24;22.60;;;20.80;;
9547;SDS011;4812;51.992;8.648;2022-07-23T08:45:53;22.80;;;20.90;;
9547;SDS011;4812;51.992;8.648;2022-07-23T08:48:23;22.37;;;20.67;;
9547;SDS011;4812;51.992;8.648;2022-07-23T08:50:53;22.03;;;20.20;;
9547;SDS011;4812;51.992;8.648;2022-07-23T08:53:24;22.83;;;20.83;;
9547;SDS011;4812;51.992;8.648;2022-07-23T08:55:54;22.20;;;20.50;;
9547;SDS011;4812;51.992;8.648;2022-07-23T08:58:23;23.63;;;21.43;;
9547;SDS011;4812;51.992;8.648;2022-07-23T09:00:53;22.20;;;20.37;;
9547;SDS011;4812;51.992;8.648;2022-07-23T09:03:23;22.40;;;20.60;;
9547;SDS011;4812;51.992;8.648;2022-07-23T09:05:52;22.67;;;20.40;;
9547;SDS011;4812;51.992;8.648;2022-07-23T09:08:20;22.30;;;20.30;;
9547;SDS011;4812;51.992;8.648;2022-07-23T09:10:49;22.37;;;20.57;;
9547;SDS011;4812;51.992;8.648;2022-07-23T09:13:33;23.33;;;21.27;;
9547;SDS011;4812;51.992;8.648;2022-07-23T09:16:04;22.97;;;20.97;;
9547;SDS011;4812;51.992;8.648;2022-07-23T09:18:34;22.87;;;20.97;;
9547;SDS011;4812;51.992;8.648;2022-07-23T09:21:15;22.17;;;20.47;;
9547;SDS011;4812;51.992;8.648;2022-07-23T09:23:45;22.73;;;20.92;;
9547;SDS011;4812;51.992;8.648;2022-07-23T09:26:18;22.83;;;21.02;;
9547;SDS011;4812;51.992;8.648;2022-07-23T09:28:57;22.90;;;21.10;;
9547;SDS011;4812;51.992;8.648;2022-07-23T09:31:42;22.98;;;21.00;;
9547;SDS011;4812;51.992;8.648;2022-07-23T09:34:15;22.83;;;20.83;;
9547;SDS011;4812;51.992;8.648;2022-07-23T09:36:45;22.23;;;20.25;;
9547;SDS011;4812;51.992;8.648;2022-07-23T09:39:13;21.95;;;20.33;;
9547;SDS011;4812;51.992;8.648;2022-07-23T09:41:44;22.63;;;20.88;;
9547;SDS011;4812;51.992;8.648;2022-07-23T09:44:14;22.60;;;20.60;;
9547;SDS011;4812;51.992;8.648;2022-07-23T09:46:44;22.30;;;20.58;;
9547;SDS011;4812;51.992;8.648;2022-07-23T09:49:13;22.17;;;20.40;;
9547;SDS011;4812;51.992;8.648;2022-07-23T09:51:43;22.70;;;20.80;;
9547;SDS011;4812;51.992;8.648;2022-07-23T09:54:22;22.10;;;20.25;;
9547;SDS011;4812;51.992;8.648;2022-07-23T09:56:52;22.58;;;20.77;;
9547;SDS011;4812;51.992;8.648;2022-07-23T09:59:23;22.80;;;20.52;;
9547;SDS011;4812;51.992;8.648;2022-07-23T10:01:53;22.17;;;20.38;;
9547;SDS011;4812;51.992;8.648;2022-07-23T10:04:23;22.42;;;20.73;;
9547;SDS011;4812;51.992;8.648;2022-07-23T10:07:10;21.43;;;19.83;;
9547;SDS011;4812;51.992;8.648;2022-07-23T10:09:58;22.40;;;20.73;;
9547;SDS011;4812;51.992;8.648;2022-07-23T10:12:46;22.70;;;20.77;;
9547;SDS011;4812;51.992;8.648;2022-07-23T10:15:32;22.63;;;20.67;;
9547;SDS011;4812;51.992;8.648;2022-07-23T10:18:00;21.70;;;20.10;;
9547;SDS011;4812;51.992;8.648;2022-07-23T10:20:27;21.90;;;20.40;;
9547;SDS011;4812;51.992;8.648;2022-07-23T10:22:57;21.17;;;19.77;;
9547;SDS011;4812;51.992;8.648;2022-07-23T10:25:32;21.13;;;19.63;;
9547;SDS011;4812;51.992;8.648;2022-07-23T10:30:59;19.05;;;17.48;;
9547;SDS011;4812;51.992;8.648;2022-07-23T10:33:30;18.60;;;17.40;;
9547;SDS011;4812;51.992;8.648;2022-07-23T10:36:02;18.17;;;17.08;;
9547;SDS011;4812;51.992;8.648;2022-07-23T10:38:35;18.97;;;17.67;;
9547;SDS011;4812;51.992;8.648;2022-07-23T10:41:05;18.03;;;16.93;;
9547;SDS011;4812;51.992;8.648;2022-07-23T10:43:32;17.43;;;16.33;;
9547;SDS011;4812;51.992;8.648;2022-07-23T10:54:46;16.77;;;15.77;;
9547;SDS011;4812;51.992;8.648;2022-07-23T10:57:15;16.87;;;15.87;;
9547;SDS011;4812;51.992;8.648;2022-07-23T11:02:58;16.73;;;15.63;;
9547;SDS011;4812;51.992;8.648;2022-07-23T11:05:39;16.35;;;15.35;;
9547;SDS011;4812;51.992;8.648;2022-07-23T11:08:13;17.23;;;16.13;;
9547;SDS011;4812;51.992;8.648;2022-07-23T11:10:43;16.58;;;15.27;;
9547;SDS011;4812;51.992;8.648;2022-07-23T11:13:26;17.15;;;16.05;;
9547;SDS011;4812;51.992;8.648;2022-07-23T11:18:55;16.83;;;15.73;;
9547;SDS011;4812;51.992;8.648;2022-07-23T11:21:39;17.10;;;15.90;;
9547;SDS011;4812;51.992;8.648;2022-07-23T11:24:08;16.63;;;15.43;;
9547;SDS011;4812;51.992;8.648;2022-07-23T11:26:42;17.17;;;16.08;;
9547;SDS011;4812;51.992;8.648;2022-07-23T11:32:19;15.98;;;14.90;;
9547;SDS011;4812;51.992;8.648;2022-07-23T11:34:51;15.73;;;14.82;;
9547;SDS011;4812;51.992;8.648;2022-07-23T11:37:31;16.27;;;15.27;;
9547;SDS011;4812;51.992;8.648;2022-07-23T11:40:01;16.25;;;15.05;;
9547;SDS011;4812;51.992;8.648;2022-07-23T11:42:30;16.27;;;15.27;;
9547;SDS011;4812;51.992;8.648;2022-07-23T11:44:57;15.90;;;14.88;;
9547;SDS011;4812;51.992;8.648;2022-07-23T11:47:26;16.35;;;15.43;;
9547;SDS011;4812;51.992;8.648;2022-07-23T11:49:56;16.40;;;15.50;;
9547;SDS011;4812;51.992;8.648;2022-07-23T11:52:25;15.93;;;15.00;;
9547;SDS011;4812;51.992;8.648;2022-07-23T11:54:53;16.17;;;15.18;;
9547;SDS011;4812;51.992;8.648;2022-07-23T11:57:24;16.75;;;15.55;;
9547;SDS011;4812;51.992;8.648;2022-07-23T11:59:52;16.23;;;15.15;;
9547;SDS011;4812;51.992;8.648;2022-07-23T12:02:21;15.88;;;14.88;;
9547;SDS011;4812;51.992;8.648;2022-07-23T12:04:49;16.05;;;15.07;;
9547;SDS011;4812;51.992;8.648;2022-07-23T12:07:31;15.55;;;14.65;;
9547;SDS011;4812;51.992;8.648;2022-07-23T12:10:00;15.43;;;14.52;;
9547;SDS011;4812;51.992;8.648;2022-07-23T12:12:36;15.48;;;14.68;;
9547;SDS011;4812;51.992;8.648;2022-07-23T12:15:05;16.02;;;15.13;;
9547;SDS011;4812;51.992;8.648;2022-07-23T12:17:34;16.30;;;15.07;;
9547;SDS011;4812;51.992;8.648;2022-07-23T12:20:02;15.77;;;14.43;;
9547;SDS011;4812;51.992;8.648;2022-07-23T12:22:37;15.60;;;14.60;;
9547;SDS011;4812;51.992;8.648;2022-07-23T12:25:06;15.18;;;14.27;;
9547;SDS011;4812;51.992;8.648;2022-07-23T12:27:36;15.43;;;14.52;;
9547;SDS011;4812;51.992;8.648;2022-07-23T12:30:21;15.70;;;14.80;;
9547;SDS011;4812;51.992;8.648;2022-07-23T12:32:50;15.95;;;14.95;;
9547;SDS011;4812;51.992;8.648;2022-07-23T12:35:19;15.48;;;14.57;;
9547;SDS011;4812;51.992;8.648;2022-07-23T12:37:49;16.00;;;15.00;;
9547;SDS011;4812;51.992;8.648;2022-07-23T12:40:19;15.50;;;14.60;;
9547;SDS011;4812;51.992;8.648;2022-07-23T12:42:54;15.63;;;14.73;;
9547;SDS011;4812;51.992;8.648;2022-07-23T12:45:23;15.77;;;14.73;;
9547;SDS011;4812;51.992;8.648;2022-07-23T12:47:56;15.50;;;14.60;;
9547;SDS011;4812;51.992;8.648;2022-07-23T12:50:35;16.20;;;15.10;;
9547;SDS011;4812;51.992;8.648;2022-07-23T12:53:09;15.15;;;14.23;;
9547;SDS011;4812;51.992;8.648;2022-07-23T12:55:44;15.00;;;14.20;;
9547;SDS011;4812;51.992;8.648;2022-07-23T12:58:39;15.10;;;14.23;;
9547;SDS011;4812;51.992;8.648;2022-07-23T13:01:09;15.20;;;14.20;;
9547;SDS011;4812;51.992;8.648;2022-07-23T13:03:39;15.43;;;14.45;;
9547;SDS011;4812;51.992;8.648;2022-07-23T13:06:10;14.70;;;13.90;;
9547;SDS011;4812;51.992;8.648;2022-07-23T13:08:41;15.55;;;14.57;;
9547;SDS011;4812;51.992;8.648;2022-07-23T13:11:09;14.75;;;13.95;;
9547;SDS011;4812;51.992;8.648;2022-07-23T13:13:37;15.77;;;14.68;;
9547;SDS011;4812;51.992;8.648;2022-07-23T13:16:07;15.13;;;14.13;;
9547;SDS011;4812;51.992;8.648;2022-07-23T13:18:37;15.50;;;14.50;;
9547;SDS011;4812;51.992;8.648;2022-07-23T13:21:05;15.45;;;14.60;;
9547;SDS011;4812;51.992;8.648;2022-07-23T13:23:34;15.30;;;14.40;;
9547;SDS011;4812;51.992;8.648;2022-07-23T13:26:03;14.73;;;13.75;;
9547;SDS011;4812;51.992;8.648;2022-07-23T13:28:31;14.75;;;13.88;;
9547;SDS011;4812;51.992;8.648;2022-07-23T13:30:59;14.93;;;14.13;;
9547;SDS011;4812;51.992;8.648;2022-07-23T13:33:27;15.18;;;14.27;;
9547;SDS011;4812;51.992;8.648;2022-07-23T13:35:55;15.40;;;14.40;;
9547;SDS011;4812;51.992;8.648;2022-07-23T13:38:22;15.15;;;14.20;;
9547;SDS011;4812;51.992;8.648;2022-07-23T13:40:51;15.48;;;14.57;;
9547;SDS011;4812;51.992;8.648;2022-07-23T13:43:21;15.18;;;14.38;;
9547;SDS011;4812;51.992;8.648;2022-07-23T13:45:49;14.95;;;14.05;;
9547;SDS011;4812;51.992;8.648;2022-07-23T13:48:18;15.43;;;14.52;;
9547;SDS011;4812;51.992;8.648;2022-07-23T13:50:46;15.25;;;14.45;;
9547;SDS011;4812;51.992;8.648;2022-07-23T13:53:18;15.57;;;14.68;;
9547;SDS011;4812;51.992;8.648;2022-07-23T13:55:47;15.13;;;14.13;;
9547;SDS011;4812;51.992;8.648;2022-07-23T13:58:21;14.70;;;13.80;;
9547;SDS011;4812;51.992;8.648;2022-07-23T14:00:50;15.25;;;14.25;;
9547;SDS011;4812;51.992;8.648;2022-07-23T14:03:20;15.02;;;14.13;;
9547;SDS011;4812;51.992;8.648;2022-07-23T14:05:50;15.30;;;14.40;;
9547;SDS011;4812;51.992;8.648;2022-07-23T14:08:21;15.02;;;14.02;;
9547;SDS011;4812;51.992;8.648;2022-07-23T14:10:49;14.95;;;14.15;;
9547;SDS011;4812;51.992;8.648;2022-07-23T14:13:16;14.40;;;13.60;;
9547;SDS011;4812;51.992;8.648;2022-07-23T14:15:48;14.82;;;14.02;;
9547;SDS011;4812;51.992;8.648;2022-07-23T14:18:16;15.32;;;14.45;;
9547;SDS011;4812;51.992;8.648;2022-07-23T14:20:44;15.30;;;14.48;;
9547;SDS011;4812;51.992;8.648;2022-07-23T14:23:11;15.68;;;14.77;;
9547;SDS011;4812;51.992;8.648;2022-07-23T14:25:40;16.00;;;14.90;;
9547;SDS011;4812;51.992;8.648;2022-07-23T14:28:08;14.55;;;13.65;;
9547;SDS011;4812;51.992;8.648;2022-07-23T14:30:37;15.05;;;14.20;;
9547;SDS011;4812;51.992;8.648;2022-07-23T14:33:11;14.75;;;13.85;;
9547;SDS011;4812;51.992;8.648;2022-07-23T14:35:41;14.68;;;13.88;;
9547;SDS011;4812;51.992;8.648;2022-07-23T14:38:10;14.90;;;14.00;;
9547;SDS011;4812;51.992;8.648;2022-07-23T14:40:39;14.18;;;13.48;;
9547;SDS011;4812;51.992;8.648;2022-07-23T14:43:07;14.43;;;13.50;;
9547;SDS011;4812;51.992;8.648;2022-07-23T14:45:37;14.20;;;13.48;;
9547;SDS011;4812;51.992;8.648;2022-07-23T14:48:05;14.35;;;13.55;;
9547;SDS011;4812;51.992;8.648;2022-07-23T14:50:35;14.50;;;13.70;;
9547;SDS011;4812;51.992;8.648;2022-07-23T14:53:02;14.45;;;13.65;;
9547;SDS011;4812;51.992;8.648;2022-07-23T14:55:30;14.48;;;13.68;;
9547;SDS011;4812;51.992;8.648;2022-07-23T14:57:58;14.90;;;14.00;;
9547;SDS011;4812;51.992;8.648;2022-07-23T15:00:26;14.48;;;13.68;;
9547;SDS011;4812;51.992;8.648;2022-07-23T15:02:55;14.48;;;13.68;;
9547;SDS011;4812;51.992;8.648;2022-07-23T15:05:23;14.88;;;14.05;;
9547;SDS011;4812;51.992;8.648;2022-07-23T15:07:53;14.52;;;13.73;;
9547;SDS011;4812;51.992;8.648;2022-07-23T15:10:21;14.32;;;13.52;;
9547;SDS011;4812;51.992;8.648;2022-07-23T15:12:48;14.50;;;13.70;;
9547;SDS011;4812;51.992;8.648;2022-07-23T15:15:16;14.77;;;13.88;;
9547;SDS011;4812;51.992;8.648;2022-07-23T15:17:46;14.82;;;13.85;;
9547;SDS011;4812;51.992;8.648;2022-07-23T15:20:15;14.50;;;13.70;;
9547;SDS011;4812;51.992;8.648;2022-07-23T15:23:04;14.38;;;13.57;;
9547;SDS011;4812;51.992;8.648;2022-07-23T15:25:33;14.70;;;13.70;;